CheckWX is a tool to help pilots better visualize weather data.  It is not intended as a substitute for an official pre-flight weather briefing.

02:43:17 UTC

KOAK TAF
Metropolitan Oakland International Airport
Oakland, California, USA
KOAK 252340Z 2600/2706 30014KT P6SM FEW011 FM260300 29008KT P6SM SCT008 FM260900 29006KT P6SM BKN008 FM261600 VRB04KT P6SM FEW010 FM262000 30010KT P6SM SKC FM270300 29008KT P6SM SKC

Aug-26@
00:00 UTC

Aug-26 @ 00:00 UTC

Aug-26@
03:00 UTC

Aug-26 @ 03:00 UTC

KOAK 252340Z 2600/2706 30014KT P6SM FEW011
Wind
  • 300° at 14 KTS
Cloud Levels
  • Few at 1,100' AGL

Aug-26@
03:00 UTC

Aug-26 @ 03:00 UTC

Aug-26@
09:00 UTC

Aug-26 @ 09:00 UTC

FM260300 29008KT P6SM SCT008

From

From Standard forecast or significant change

Wind
  • 290° at 8 KTS
Cloud Levels
  • Scattered at 800' AGL

Aug-26@
09:00 UTC

Aug-26 @ 09:00 UTC

Aug-26@
16:00 UTC

Aug-26 @ 16:00 UTC

FM260900 29006KT P6SM BKN008

From

From Standard forecast or significant change

Wind
  • 290° at 6 KTS
Cloud Levels
  • Broken at 800' AGL

Aug-26@
16:00 UTC

Aug-26 @ 16:00 UTC

Aug-26@
20:00 UTC

Aug-26 @ 20:00 UTC

FM261600 VRB04KT P6SM FEW010

From

From Standard forecast or significant change

Wind
  • Variable at 4 KTS
Cloud Levels
  • Few at 1,000' AGL

Aug-26@
20:00 UTC

Aug-26 @ 20:00 UTC

Aug-27@
03:00 UTC

Aug-27 @ 03:00 UTC

FM262000 30010KT P6SM SKC

From

From Standard forecast or significant change

Wind
  • 300° at 10 KTS
Cloud Levels
  • Clear skies

Aug-27@
03:00 UTC

Aug-27 @ 03:00 UTC

Aug-27@
06:00 UTC

Aug-27 @ 06:00 UTC

FM270300 29008KT P6SM SKC

From

From Standard forecast or significant change

Wind
  • 290° at 8 KTS
Cloud Levels
  • Clear skies